Time;durP1;ratioP1;P1;durP2;ratioP2;P2;SDS_P1;SDS_P2;PMS_P1;PMS_P2;Temp;Humidity;BMP_temperature;BMP_pressure;BME280_temperature;BME280_humidity;BME280_pressure;Samples;Min_cycle;Max_cycle;Signal;HPM_P1;HPM_P2
2023/05/26 00:02:13;;;;;;;0.10;0.10;;;;;;;;;;5089829;28;20247;-71
2023/05/26 00:04:42;;;;;;;0.10;0.10;;;;;;;;;;5084483;28;20477;-71
2023/05/26 00:07:09;;;;;;;0.10;0.10;;;;;;;;;;5089779;28;20234;-71
2023/05/26 00:09:36;;;;;;;0.10;0.10;;;;;;;;;;5084371;28;20230;-71
2023/05/26 00:12:05;;;;;;;0.10;0.10;;;;;;;;;;5089111;28;20235;-71
2023/05/26 00:14:32;;;;;;;0.10;0.10;;;;;;;;;;5084434;28;20211;-71
2023/05/26 00:16:58;;;;;;;0.10;0.10;;;;;;;;;;5088214;28;20300;-71
2023/05/26 00:19:24;;;;;;;0.10;0.10;;;;;;;;;;5085100;28;20274;-71
2023/05/26 00:21:51;;;;;;;14.30;13.23;;;;;;;;;;5087204;28;20442;-71
2023/05/26 00:24:17;;;;;;;0.10;0.10;;;;;;;;;;5085814;28;20205;-71
2023/05/26 00:26:44;;;;;;;0.10;0.10;;;;;;;;;;5086324;28;20246;-71
2023/05/26 00:29:12;;;;;;;0.10;0.10;;;;;;;;;;5087108;28;20230;-71
2023/05/26 00:31:38;;;;;;;0.10;0.10;;;;;;;;;;5085297;28;20238;-71
2023/05/26 00:34:04;;;;;;;2.57;2.40;;;;;;;;;;5087795;28;20204;-71
2023/05/26 00:36:31;;;;;;;0.10;0.10;;;;;;;;;;5084363;28;20240;-71
2023/05/26 00:38:57;;;;;;;0.10;0.10;;;;;;;;;;5088344;28;20204;-71
2023/05/26 00:41:25;;;;;;;0.10;0.10;;;;;;;;;;5083459;28;20240;-71
2023/05/26 00:43:52;;;;;;;0.10;0.10;;;;;;;;;;5088574;28;20243;-71
2023/05/26 00:46:19;;;;;;;0.10;0.10;;;;;;;;;;5082329;28;20238;-71
2023/05/26 00:48:46;;;;;;;0.10;0.10;;;;;;;;;;5090080;28;20272;-71
2023/05/26 00:51:12;;;;;;;0.10;0.10;;;;;;;;;;5081791;28;20240;-71
2023/05/26 00:53:42;;;;;;;0.10;0.10;;;;;;;;;;5090985;28;20270;-71
2023/05/26 00:56:09;;;;;;;0.10;0.10;;;;;;;;;;5081132;28;20300;-71
2023/05/26 00:58:35;;;;;;;0.10;0.10;;;;;;;;;;5090837;28;20297;-71
2023/05/26 01:01:02;;;;;;;0.10;0.10;;;;;;;;;;5080387;28;20255;-71
2023/05/26 01:03:30;;;;;;;0.10;0.10;;;;;;;;;;5092288;28;20235;-71
2023/05/26 01:05:56;;;;;;;0.10;0.10;;;;;;;;;;5079457;28;20270;-71
2023/05/26 01:08:23;;;;;;;0.10;0.10;;;;;;;;;;5092854;28;20273;-71
2023/05/26 01:10:50;;;;;;;0.10;0.10;;;;;;;;;;5078317;28;20242;-71
2023/05/26 01:13:17;;;;;;;0.10;0.10;;;;;;;;;;5093304;28;20192;-71
2023/05/26 01:15:49;;;;;;;0.10;0.10;;;;;;;;;;5077542;28;20307;-71
2023/05/26 01:18:20;;;;;;;0.10;0.10;;;;;;;;;;5093761;28;20216;-71
2023/05/26 01:20:51;;;;;;;0.10;0.10;;;;;;;;;;5078189;28;20597;-72
2023/05/26 01:23:41;;;;;;;0.10;0.10;;;;;;;;;;5093713;28;20507;-71
2023/05/26 01:26:15;;;;;;;0.10;0.10;;;;;;;;;;5080868;28;20302;-71
2023/05/26 01:28:44;;;;;;;0.10;0.10;;;;;;;;;;5090170;28;20262;-71
2023/05/26 01:31:10;;;;;;;0.10;0.10;;;;;;;;;;5081032;28;20247;-71
2023/05/26 01:33:37;;;;;;;0.10;0.10;;;;;;;;;;5090763;28;20456;-71
2023/05/26 01:36:03;;;;;;;0.10;0.10;;;;;;;;;;5080138;28;20246;-72
2023/05/26 01:38:30;;;;;;;0.10;0.10;;;;;;;;;;5091710;28;20536;-71
2023/05/26 01:41:01;;;;;;;0.10;0.10;;;;;;;;;;5079235;28;20238;-71
2023/05/26 01:43:30;;;;;;;0.10;0.10;;;;;;;;;;5091954;28;20250;-71
2023/05/26 01:46:00;;;;;;;0.10;0.10;;;;;;;;;;5079053;28;20330;-71
2023/05/26 01:48:27;;;;;;;0.10;0.10;;;;;;;;;;5091811;28;20260;-70
2023/05/26 01:50:55;;;;;;;0.03;0.03;;;;;;;;;;5078659;28;20313;-71
2023/05/26 01:53:24;;;;;;;0.10;0.10;;;;;;;;;;5092367;28;20243;-71
2023/05/26 01:55:51;;;;;;;0.23;0.23;;;;;;;;;;5079850;28;20441;-71
2023/05/26 01:58:18;;;;;;;0.10;0.10;;;;;;;;;;5096793;28;20276;-71
2023/05/26 02:00:47;;;;;;;0.10;0.10;;;;;;;;;;5081247;28;20494;-71
2023/05/26 02:03:15;;;;;;;0.10;0.10;;;;;;;;;;5097279;28;20447;-71
2023/05/26 02:05:42;;;;;;;0.20;0.20;;;;;;;;;;5080558;28;20269;-71
2023/05/26 02:08:10;;;;;;;0.10;0.10;;;;;;;;;;5097702;28;20232;-72
2023/05/26 02:10:36;;;;;;;0.10;0.10;;;;;;;;;;5079931;28;20450;-70
2023/05/26 02:13:03;;;;;;;0.10;0.10;;;;;;;;;;5098429;28;20514;-71
2023/05/26 02:15:29;;;;;;;0.10;0.10;;;;;;;;;;5079086;28;20305;-71
2023/05/26 02:17:57;;;;;;;0.10;0.10;;;;;;;;;;5098954;28;20260;-71
2023/05/26 02:20:25;;;;;;;0.10;0.10;;;;;;;;;;5078154;28;20462;-71
2023/05/26 02:22:51;;;;;;;0.40;0.40;;;;;;;;;;5099856;28;20213;-71
2023/05/26 02:25:18;;;;;;;0.30;0.30;;;;;;;;;;5077158;28;20209;-71
2023/05/26 02:27:44;;;;;;;0.10;0.10;;;;;;;;;;5100574;28;20278;-71
2023/05/26 02:30:11;;;;;;;0.10;0.10;;;;;;;;;;5076429;28;20444;-71
2023/05/26 02:32:37;;;;;;;0.10;0.10;;;;;;;;;;5101316;28;20270;-71
2023/05/26 02:35:04;;;;;;;0.10;0.10;;;;;;;;;;5085983;28;20263;-71
2023/05/26 02:37:32;;;;;;;0.10;0.10;;;;;;;;;;5091525;28;20472;-71
2023/05/26 02:39:58;;;;;;;0.10;0.10;;;;;;;;;;5086168;28;20275;-71
2023/05/26 02:42:25;;;;;;;0.10;0.10;;;;;;;;;;5091316;28;20238;-71
2023/05/26 02:44:51;;;;;;;0.10;0.10;;;;;;;;;;5085621;28;20251;-71
2023/05/26 02:47:18;;;;;;;0.10;0.10;;;;;;;;;;5091237;28;20259;-71
2023/05/26 02:49:44;;;;;;;0.10;0.10;;;;;;;;;;5085643;28;20245;-71
2023/05/26 02:52:10;;;;;;;0.10;0.10;;;;;;;;;;5091219;28;20269;-71
2023/05/26 02:54:38;;;;;;;0.10;0.10;;;;;;;;;;5085524;28;20209;-71
2023/05/26 02:57:05;;;;;;;0.10;0.10;;;;;;;;;;5090736;28;20304;-71
2023/05/26 02:59:32;;;;;;;0.20;0.20;;;;;;;;;;5085968;28;20295;-71
2023/05/26 03:01:58;;;;;;;0.10;0.10;;;;;;;;;;5089727;28;20303;-71
2023/05/26 03:04:24;;;;;;;0.10;0.10;;;;;;;;;;5086860;28;20237;-71
2023/05/26 03:06:51;;;;;;;0.10;0.10;;;;;;;;;;5088077;28;20257;-71
2023/05/26 03:09:17;;;;;;;0.10;0.10;;;;;;;;;;5087738;28;20372;-71
2023/05/26 03:11:45;;;;;;;0.10;0.10;;;;;;;;;;5087585;28;20295;-71
2023/05/26 03:14:11;;;;;;;0.10;0.10;;;;;;;;;;5088604;28;20235;-71
2023/05/26 03:16:37;;;;;;;0.27;0.27;;;;;;;;;;5086725;28;20297;-71
2023/05/26 03:19:04;;;;;;;0.10;0.10;;;;;;;;;;5089020;28;20251;-71
2023/05/26 03:21:31;;;;;;;0.10;0.10;;;;;;;;;;5085605;28;20597;-71
2023/05/26 03:23:57;;;;;;;0.10;0.10;;;;;;;;;;5089664;28;20268;-71
2023/05/26 03:26:23;;;;;;;0.10;0.10;;;;;;;;;;5084727;28;20240;-71
2023/05/26 03:28:51;;;;;;;0.60;0.60;;;;;;;;;;5090743;28;20240;-71
2023/05/26 03:31:17;;;;;;;0.10;0.10;;;;;;;;;;5083885;28;20304;-71
2023/05/26 03:33:45;;;;;;;0.10;0.10;;;;;;;;;;5091117;28;20213;-71
2023/05/26 03:36:11;;;;;;;0.10;0.10;;;;;;;;;;5082922;28;20290;-71
2023/05/26 03:38:37;;;;;;;0.10;0.10;;;;;;;;;;5091860;28;20259;-71
2023/05/26 03:41:04;;;;;;;0.10;0.10;;;;;;;;;;5081736;28;20251;-71
2023/05/26 03:43:30;;;;;;;0.10;0.10;;;;;;;;;;5093190;28;20211;-71
2023/05/26 03:45:58;;;;;;;0.10;0.10;;;;;;;;;;5080602;28;20314;-71
2023/05/26 03:48:24;;;;;;;0.10;0.10;;;;;;;;;;5093851;28;20204;-71
2023/05/26 03:50:51;;;;;;;0.10;0.10;;;;;;;;;;5080101;28;20463;-71
2023/05/26 03:53:17;;;;;;;0.10;0.10;;;;;;;;;;5094683;28;20236;-71
2023/05/26 03:55:44;;;;;;;0.10;0.10;;;;;;;;;;5078862;28;20251;-71
2023/05/26 03:58:11;;;;;;;0.10;0.10;;;;;;;;;;5094961;28;20248;-71
2023/05/26 04:00:37;;;;;;;0.10;0.10;;;;;;;;;;5076810;28;20547;-71
2023/05/26 04:03:05;;;;;;;0.10;0.10;;;;;;;;;;5097355;28;20213;-71
2023/05/26 04:05:31;;;;;;;0.23;0.23;;;;;;;;;;5076867;28;20465;-71
2023/05/26 04:07:58;;;;;;;0.10;0.10;;;;;;;;;;5097291;28;20268;-70
2023/05/26 04:10:24;;;;;;;0.10;0.10;;;;;;;;;;5076062;28;20571;-71
2023/05/26 04:12:50;;;;;;;0.10;0.10;;;;;;;;;;5097834;28;20282;-71
2023/05/26 04:15:17;;;;;;;0.10;0.10;;;;;;;;;;5075146;28;20254;-71
2023/05/26 04:17:43;;;;;;;0.10;0.10;;;;;;;;;;5097712;28;20365;-71
2023/05/26 04:20:11;;;;;;;0.10;0.10;;;;;;;;;;5073686;28;20203;-72
2023/05/26 04:22:37;;;;;;;0.10;0.10;;;;;;;;;;5099080;28;20215;-70
2023/05/26 04:25:04;;;;;;;0.10;0.10;;;;;;;;;;5083988;28;20271;-71
2023/05/26 04:27:30;;;;;;;0.10;0.10;;;;;;;;;;5089324;28;20418;-71
2023/05/26 04:29:58;;;;;;;0.10;0.10;;;;;;;;;;5084134;28;20481;-71
2023/05/26 04:32:24;;;;;;;0.10;0.10;;;;;;;;;;5089252;28;20300;-71
2023/05/26 04:34:51;;;;;;;0.10;0.10;;;;;;;;;;5083522;28;20202;-71
2023/05/26 04:37:19;;;;;;;0.53;0.53;;;;;;;;;;5088915;28;20245;-71
2023/05/26 04:39:45;;;;;;;0.10;0.10;;;;;;;;;;5083823;28;20552;-71
2023/05/26 04:42:12;;;;;;;0.10;0.10;;;;;;;;;;5089185;28;20240;-71
2023/05/26 04:44:40;;;;;;;0.10;0.10;;;;;;;;;;5083448;28;20247;-70
2023/05/26 04:47:08;;;;;;;0.10;0.10;;;;;;;;;;5088888;28;20641;-71
2023/05/26 04:49:35;;;;;;;0.10;0.10;;;;;;;;;;5083495;28;20209;-71
2023/05/26 04:52:02;;;;;;;0.10;0.10;;;;;;;;;;5088164;28;20244;-71
2023/05/26 04:54:30;;;;;;;0.10;0.10;;;;;;;;;;5084162;28;20462;-71
2023/05/26 04:56:56;;;;;;;0.10;0.10;;;;;;;;;;5087450;28;20242;-71
2023/05/26 04:59:23;;;;;;;0.10;0.10;;;;;;;;;;5085006;28;20265;-71
2023/05/26 05:01:49;;;;;;;0.30;0.30;;;;;;;;;;5086410;28;20238;-71
2023/05/26 05:04:16;;;;;;;0.10;0.10;;;;;;;;;;5085997;28;20375;-71
2023/05/26 05:06:44;;;;;;;0.10;0.10;;;;;;;;;;5085661;28;20239;-72
2023/05/26 05:09:10;;;;;;;0.10;0.10;;;;;;;;;;5086586;28;20208;-72
2023/05/26 05:11:38;;;;;;;0.10;0.10;;;;;;;;;;5084769;28;20266;-71
2023/05/26 05:14:04;;;;;;;0.10;0.10;;;;;;;;;;5087537;28;20430;-71
2023/05/26 05:16:31;;;;;;;0.10;0.10;;;;;;;;;;5083855;28;20251;-71
2023/05/26 05:18:57;;;;;;;0.10;0.10;;;;;;;;;;5087810;28;20265;-71
2023/05/26 05:21:23;;;;;;;0.10;0.10;;;;;;;;;;5082749;28;20311;-72
2023/05/26 05:23:50;;;;;;;0.10;0.10;;;;;;;;;;5088821;28;20272;-71
2023/05/26 05:26:16;;;;;;;0.10;0.10;;;;;;;;;;5081969;28;20584;-71
2023/05/26 05:28:44;;;;;;;0.10;0.10;;;;;;;;;;5089839;28;20268;-72
2023/05/26 05:31:10;;;;;;;0.00;0.00;;;;;;;;;;5085108;28;20568;-71
2023/05/26 05:33:37;;;;;;;0.10;0.10;;;;;;;;;;5094887;28;20425;-71
2023/05/26 05:36:04;;;;;;;0.10;0.10;;;;;;;;;;5084191;28;20579;-71
2023/05/26 05:38:30;;;;;;;0.10;0.10;;;;;;;;;;5095543;28;20233;-71
2023/05/26 05:40:56;;;;;;;0.10;0.10;;;;;;;;;;5083246;28;20250;-72
2023/05/26 05:43:23;;;;;;;0.10;0.10;;;;;;;;;;5096218;28;20214;-71
2023/05/26 05:45:50;;;;;;;0.10;0.10;;;;;;;;;;5081811;28;20306;-72
2023/05/26 05:48:17;;;;;;;0.10;0.10;;;;;;;;;;5096881;28;20192;-71
2023/05/26 05:50:43;;;;;;;0.10;0.10;;;;;;;;;;5081441;28;20576;-71
2023/05/26 05:53:10;;;;;;;0.10;0.10;;;;;;;;;;5098011;28;20251;-71
2023/05/26 05:55:36;;;;;;;0.10;0.10;;;;;;;;;;5079770;28;20244;-71
2023/05/26 05:58:02;;;;;;;0.10;0.10;;;;;;;;;;5098495;28;20266;-71
2023/05/26 06:00:29;;;;;;;0.10;0.10;;;;;;;;;;5078592;28;20225;-71
2023/05/26 06:02:56;;;;;;;0.10;0.10;;;;;;;;;;5099928;28;20456;-71
2023/05/26 06:05:23;;;;;;;0.10;0.10;;;;;;;;;;5078428;28;20278;-71
2023/05/26 06:07:49;;;;;;;10.53;2.90;;;;;;;;;;5100264;28;20215;-71
2023/05/26 06:10:15;;;;;;;0.10;0.10;;;;;;;;;;5077096;28;20301;-72
2023/05/26 06:12:42;;;;;;;0.10;0.10;;;;;;;;;;5101086;28;20275;-71
2023/05/26 06:15:09;;;;;;;0.10;0.10;;;;;;;;;;5078502;28;20214;-72
2023/05/26 06:17:36;;;;;;;0.10;0.10;;;;;;;;;;5101370;28;20224;-71
2023/05/26 06:20:05;;;;;;;0.10;0.10;;;;;;;;;;5086479;28;20254;-71
2023/05/26 06:22:33;;;;;;;0.10;0.10;;;;;;;;;;5091860;28;20248;-71
2023/05/26 06:25:00;;;;;;;0.10;0.10;;;;;;;;;;5086224;28;20526;-72
2023/05/26 06:27:26;;;;;;;0.10;0.10;;;;;;;;;;5091675;28;20259;-72
2023/05/26 06:29:52;;;;;;;0.10;0.10;;;;;;;;;;5086029;28;20208;-72
2023/05/26 06:32:19;;;;;;;0.10;0.10;;;;;;;;;;5091420;28;20241;-71
2023/05/26 06:34:45;;;;;;;0.10;0.10;;;;;;;;;;5086004;28;20218;-71
2023/05/26 06:37:13;;;;;;;0.10;0.10;;;;;;;;;;5091459;28;20311;-71
2023/05/26 06:39:39;;;;;;;0.10;0.10;;;;;;;;;;5085819;28;20255;-72
2023/05/26 06:42:06;;;;;;;0.10;0.10;;;;;;;;;;5090116;28;20347;-72
2023/05/26 06:44:33;;;;;;;0.10;0.10;;;;;;;;;;5085781;28;20398;-71
2023/05/26 06:47:00;;;;;;;0.10;0.10;;;;;;;;;;5090110;28;20302;-71
2023/05/26 06:49:26;;;;;;;0.10;0.10;;;;;;;;;;5086640;28;20268;-72
2023/05/26 06:51:52;;;;;;;0.00;0.00;;;;;;;;;;5089109;28;20241;-71
2023/05/26 06:54:20;;;;;;;0.10;0.10;;;;;;;;;;5087809;28;20278;-71
2023/05/26 06:56:47;;;;;;;1.07;1.07;;;;;;;;;;5088318;28;20307;-71
2023/05/26 06:59:13;;;;;;;0.10;0.10;;;;;;;;;;5088111;28;20230;-72
2023/05/26 07:01:39;;;;;;;0.10;0.10;;;;;;;;;;5087195;28;20301;-71
2023/05/26 07:04:06;;;;;;;0.10;0.10;;;;;;;;;;5089095;28;20273;-72
2023/05/26 07:06:32;;;;;;;0.03;0.03;;;;;;;;;;5086039;28;20250;-72
2023/05/26 07:08:59;;;;;;;3.57;3.40;;;;;;;;;;5089824;28;20207;-72
2023/05/26 07:11:26;;;;;;;3.43;3.23;;;;;;;;;;5085204;28;20246;-72
2023/05/26 07:13:53;;;;;;;0.10;0.10;;;;;;;;;;5090798;28;20300;-71
2023/05/26 07:16:19;;;;;;;0.07;0.07;;;;;;;;;;5084006;28;20238;-71
2023/05/26 07:18:46;;;;;;;0.10;0.10;;;;;;;;;;5091240;28;20499;-71
2023/05/26 07:21:14;;;;;;;0.10;0.10;;;;;;;;;;5083395;28;20260;-73
2023/05/26 07:23:41;;;;;;;0.10;0.10;;;;;;;;;;5091920;28;20247;-72
2023/05/26 07:26:07;;;;;;;0.10;0.10;;;;;;;;;;5082294;28;20314;-71
2023/05/26 07:28:35;;;;;;;0.10;0.10;;;;;;;;;;5092958;28;20206;-70
2023/05/26 07:31:01;;;;;;;0.10;0.10;;;;;;;;;;5081429;28;20259;-72
2023/05/26 07:33:27;;;;;;;0.10;0.10;;;;;;;;;;5093904;28;20205;-71
2023/05/26 07:35:54;;;;;;;0.53;0.53;;;;;;;;;;5080725;28;20279;-71
2023/05/26 07:38:21;;;;;;;0.10;0.10;;;;;;;;;;5094666;28;20209;-71
2023/05/26 07:40:47;;;;;;;0.10;0.10;;;;;;;;;;5079569;28;20239;-72
2023/05/26 07:43:13;;;;;;;0.10;0.10;;;;;;;;;;5095339;28;20202;-71
2023/05/26 07:45:41;;;;;;;0.10;0.10;;;;;;;;;;5078563;28;20304;-71
2023/05/26 07:48:08;;;;;;;0.10;0.10;;;;;;;;;;5096138;28;20282;-71
2023/05/26 07:50:34;;;;;;;0.10;0.10;;;;;;;;;;5077511;28;20619;-71
2023/05/26 07:53:00;;;;;;;0.30;0.30;;;;;;;;;;5096817;28;20212;-71
2023/05/26 07:55:27;;;;;;;0.10;0.10;;;;;;;;;;5076406;28;20272;-71
2023/05/26 07:57:55;;;;;;;0.10;0.10;;;;;;;;;;5097312;28;20213;-77
2023/05/26 08:00:21;;;;;;;0.00;0.00;;;;;;;;;;5075874;28;20221;-71
2023/05/26 08:02:49;;;;;;;0.10;0.10;;;;;;;;;;5098272;28;20204;-71
2023/05/26 08:05:15;;;;;;;0.10;0.10;;;;;;;;;;5074920;28;20205;-71
2023/05/26 08:07:42;;;;;;;0.10;0.10;;;;;;;;;;5098816;28;20449;-70
2023/05/26 08:10:09;;;;;;;0.10;0.10;;;;;;;;;;5076057;28;20272;-72
2023/05/26 08:12:35;;;;;;;0.10;0.10;;;;;;;;;;5099769;28;20216;-71
2023/05/26 08:15:03;;;;;;;0.00;0.00;;;;;;;;;;5084113;28;20233;-72
2023/05/26 08:17:29;;;;;;;0.00;0.00;;;;;;;;;;5089869;28;20243;-71
2023/05/26 08:19:57;;;;;;;0.10;0.10;;;;;;;;;;5083979;28;20252;-71
2023/05/26 08:22:23;;;;;;;0.10;0.10;;;;;;;;;;5089647;28;20252;-71
2023/05/26 08:24:49;;;;;;;0.10;0.10;;;;;;;;;;5084204;28;20204;-71
2023/05/26 08:27:16;;;;;;;0.10;0.10;;;;;;;;;;5089488;28;20311;-72
2023/05/26 08:29:42;;;;;;;0.10;0.10;;;;;;;;;;5084186;28;20200;-71
2023/05/26 08:32:08;;;;;;;0.07;0.07;;;;;;;;;;5089368;28;20284;-71
2023/05/26 08:34:35;;;;;;;0.03;0.03;;;;;;;;;;5084078;28;20205;-71
2023/05/26 08:37:03;;;;;;;0.10;0.10;;;;;;;;;;5088535;28;20250;-72
2023/05/26 08:39:29;;;;;;;0.10;0.10;;;;;;;;;;5084295;28;20233;-70
2023/05/26 08:41:56;;;;;;;0.10;0.10;;;;;;;;;;5087503;28;20267;-70
2023/05/26 08:44:23;;;;;;;0.10;0.10;;;;;;;;;;5084995;28;20212;-71
2023/05/26 08:46:54;;;;;;;0.10;0.10;;;;;;;;;;5086575;28;20297;-71
2023/05/26 08:49:22;;;;;;;0.10;0.10;;;;;;;;;;5085465;28;20228;-70
2023/05/26 08:51:52;;;;;;;0.10;0.10;;;;;;;;;;5086645;28;20494;-71
2023/05/26 08:54:20;;;;;;;0.32;0.32;;;;;;;;;;5085563;28;20461;-70
2023/05/26 08:56:47;;;;;;;0.10;0.10;;;;;;;;;;5086296;28;20250;-71
2023/05/26 08:59:14;;;;;;;0.03;0.03;;;;;;;;;;5085938;28;20292;-71
2023/05/26 09:01:41;;;;;;;0.10;0.10;;;;;;;;;;5085267;28;20244;-70
2023/05/26 09:04:07;;;;;;;0.10;0.10;;;;;;;;;;5086716;28;20432;-71
2023/05/26 09:06:35;;;;;;;0.10;0.10;;;;;;;;;;5084621;28;20630;-70
2023/05/26 09:09:01;;;;;;;0.10;0.10;;;;;;;;;;5087695;28;20280;-71
2023/05/26 09:11:29;;;;;;;0.10;0.10;;;;;;;;;;5083467;28;20256;-71
2023/05/26 09:13:56;;;;;;;0.00;0.00;;;;;;;;;;5088782;28;20558;-71
2023/05/26 09:16:23;;;;;;;0.10;0.10;;;;;;;;;;5082846;28;20244;-70
2023/05/26 09:18:50;;;;;;;0.05;0.05;;;;;;;;;;5089427;28;20239;-72
2023/05/26 09:21:16;;;;;;;0.52;0.52;;;;;;;;;;5082033;28;20307;-71
2023/05/26 09:23:46;;;;;;;1.08;1.00;;;;;;;;;;5090336;28;20464;-69
2023/05/26 09:26:16;;;;;;;0.10;0.10;;;;;;;;;;5081550;28;20259;-68
2023/05/26 09:28:49;;;;;;;0.10;0.10;;;;;;;;;;5089874;28;20209;-69
2023/05/26 09:31:16;;;;;;;0.10;0.10;;;;;;;;;;5082184;28;20239;-69
2023/05/26 09:33:44;;;;;;;0.10;0.10;;;;;;;;;;5090112;28;20205;-68
2023/05/26 09:36:11;;;;;;;0.08;0.08;;;;;;;;;;5081452;28;20256;-71
2023/05/26 09:38:37;;;;;;;0.10;0.10;;;;;;;;;;5090932;28;20380;-75
2023/05/26 09:41:04;;;;;;;0.10;0.10;;;;;;;;;;5080021;28;20259;-71
2023/05/26 09:43:33;;;;;;;0.00;0.00;;;;;;;;;;5091871;28;20204;-71
2023/05/26 09:46:01;;;;;;;0.10;0.10;;;;;;;;;;5079778;28;20458;-71
2023/05/26 09:48:33;;;;;;;0.00;0.00;;;;;;;;;;5092986;28;20448;-71
2023/05/26 09:50:59;;;;;;;0.00;0.00;;;;;;;;;;5079727;28;20258;-71
2023/05/26 09:53:26;;;;;;;0.03;0.03;;;;;;;;;;5092760;28;20266;-71
2023/05/26 09:55:53;;;;;;;0.10;0.10;;;;;;;;;;5078541;28;20274;-71
2023/05/26 09:58:21;;;;;;;0.10;0.10;;;;;;;;;;5093230;28;20226;-71
2023/05/26 10:00:47;;;;;;;3.90;3.60;;;;;;;;;;5076366;28;20264;-73
2023/05/26 10:03:15;;;;;;;0.68;0.68;;;;;;;;;;5095865;28;20225;-72
2023/05/26 10:05:45;;;;;;;0.10;0.10;;;;;;;;;;5077545;28;20256;-71
2023/05/26 10:08:11;;;;;;;0.10;0.10;;;;;;;;;;5094290;28;20208;-70
2023/05/26 10:10:39;;;;;;;0.03;0.03;;;;;;;;;;5076553;28;20308;-74
2023/05/26 10:13:06;;;;;;;0.10;0.10;;;;;;;;;;5094644;28;20205;-74
2023/05/26 10:15:33;;;;;;;0.05;0.05;;;;;;;;;;5076855;28;20240;-74
2023/05/26 10:18:01;;;;;;;0.00;0.00;;;;;;;;;;5098441;28;20247;-77
2023/05/26 10:20:29;;;;;;;0.10;0.10;;;;;;;;;;5079414;28;20241;-78
2023/05/26 10:22:59;;;;;;;0.00;0.00;;;;;;;;;;5102559;28;20240;-78
2023/05/26 10:25:29;;;;;;;0.10;0.10;;;;;;;;;;5081548;28;20259;-79
2023/05/26 10:27:57;;;;;;;0.08;0.08;;;;;;;;;;5100644;28;20276;-78
2023/05/26 10:30:25;;;;;;;0.08;0.08;;;;;;;;;;5081105;28;20223;-77
2023/05/26 10:32:52;;;;;;;0.10;0.10;;;;;;;;;;5102205;28;20262;-77
2023/05/26 10:35:31;;;;;;;0.00;0.00;;;;;;;;;;5080532;28;20242;-77
2023/05/26 10:38:09;;;;;;;0.00;0.00;;;;;;;;;;5102154;28;20394;-76
2023/05/26 10:40:37;;;;;;;0.10;0.10;;;;;;;;;;5080781;28;20311;-77
2023/05/26 10:43:12;;;;;;;0.10;0.10;;;;;;;;;;5097795;28;20203;-74
2023/05/26 10:45:43;;;;;;;34.97;2.72;;;;;;;;;;5080180;28;20266;-76
2023/05/26 10:48:10;;;;;;;0.10;0.10;;;;;;;;;;5098074;28;20212;-76
2023/05/26 10:50:58;;;;;;;0.00;0.00;;;;;;;;;;5080299;28;20305;-76
2023/05/26 10:53:26;;;;;;;0.03;0.03;;;;;;;;;;5088970;28;20397;-77
2023/05/26 10:55:54;;;;;;;0.10;0.10;;;;;;;;;;5081936;28;20589;-76
2023/05/26 10:58:34;;;;;;;0.00;0.00;;;;;;;;;;5096332;28;20248;-74
2023/05/26 11:01:01;;;;;;;0.00;0.00;;;;;;;;;;5082349;28;20492;-75
2023/05/26 11:03:37;;;;;;;0.10;0.10;;;;;;;;;;5094790;28;20228;-71
2023/05/26 11:06:04;;;;;;;0.10;0.10;;;;;;;;;;5082596;28;20239;-71
2023/05/26 11:08:39;;;;;;;0.00;0.00;;;;;;;;;;5093629;28;20204;-71
2023/05/26 11:11:06;;;;;;;0.10;0.10;;;;;;;;;;5082717;28;20259;-70
2023/05/26 11:13:57;;;;;;;3.45;3.35;;;;;;;;;;5093474;28;20279;-71
2023/05/26 11:16:24;;;;;;;0.10;0.10;;;;;;;;;;5082205;28;20287;-70
2023/05/26 11:18:51;;;;;;;0.10;0.10;;;;;;;;;;5090855;28;20239;-70
2023/05/26 11:21:23;;;;;;;0.10;0.10;;;;;;;;;;5083865;28;20246;-71
2023/05/26 11:23:51;;;;;;;0.10;0.10;;;;;;;;;;5091167;28;20500;-71
2023/05/26 11:26:17;;;;;;;0.10;0.10;;;;;;;;;;5083787;28;20242;-70
2023/05/26 11:28:44;;;;;;;0.08;0.08;;;;;;;;;;5091146;28;20233;-70
2023/05/26 11:31:14;;;;;;;0.05;0.05;;;;;;;;;;5082967;28;20240;-70
2023/05/26 11:33:42;;;;;;;0.10;0.10;;;;;;;;;;5091965;28;20277;-70
2023/05/26 11:36:09;;;;;;;0.00;0.00;;;;;;;;;;5082688;28;20240;-70
2023/05/26 11:38:36;;;;;;;0.10;0.10;;;;;;;;;;5092398;28;20247;-70
2023/05/26 11:41:04;;;;;;;0.10;0.10;;;;;;;;;;5081556;28;20437;-70
2023/05/26 11:43:31;;;;;;;0.30;0.30;;;;;;;;;;5092951;28;20279;-70
2023/05/26 11:46:00;;;;;;;0.10;0.10;;;;;;;;;;5080772;28;20248;-71
2023/05/26 11:48:31;;;;;;;0.03;0.03;;;;;;;;;;5093446;28;20248;-71
2023/05/26 11:50:57;;;;;;;0.08;0.08;;;;;;;;;;5080864;28;20304;-70
2023/05/26 11:53:23;;;;;;;0.08;0.08;;;;;;;;;;5093990;28;20276;-71
2023/05/26 11:56:00;;;;;;;0.00;0.00;;;;;;;;;;5079614;28;20265;-70
2023/05/26 11:58:28;;;;;;;0.10;0.10;;;;;;;;;;5093480;28;20232;-72
2023/05/26 12:00:56;;;;;;;0.60;0.60;;;;;;;;;;5079799;28;20239;-71
2023/05/26 12:03:23;;;;;;;0.10;0.10;;;;;;;;;;5094080;28;20428;-71
2023/05/26 12:05:49;;;;;;;0.05;0.05;;;;;;;;;;5079523;28;20291;-71
2023/05/26 12:08:16;;;;;;;0.00;0.00;;;;;;;;;;5094352;28;20270;-71
2023/05/26 12:10:43;;;;;;;0.03;0.03;;;;;;;;;;5078752;28;20254;-71
2023/05/26 12:13:09;;;;;;;0.00;0.00;;;;;;;;;;5095463;28;20533;-71
2023/05/26 12:15:37;;;;;;;0.00;0.00;;;;;;;;;;5077520;28;20619;-71
2023/05/26 12:18:03;;;;;;;0.03;0.03;;;;;;;;;;5096481;28;20191;-71
2023/05/26 12:20:31;;;;;;;0.68;0.68;;;;;;;;;;5076381;28;20270;-71
2023/05/26 12:23:01;;;;;;;0.00;0.00;;;;;;;;;;5096820;28;20431;-71
2023/05/26 12:25:29;;;;;;;0.00;0.00;;;;;;;;;;5076204;28;20251;-71
2023/05/26 12:27:55;;;;;;;0.08;0.08;;;;;;;;;;5097038;28;20235;-71
2023/05/26 12:30:23;;;;;;;0.30;0.30;;;;;;;;;;5075339;28;20210;-71
2023/05/26 12:32:51;;;;;;;0.10;0.10;;;;;;;;;;5097560;28;20192;-70
2023/05/26 12:35:18;;;;;;;0.10;0.10;;;;;;;;;;5074765;28;20203;-71
2023/05/26 12:37:45;;;;;;;0.00;0.00;;;;;;;;;;5098321;28;20387;-71
2023/05/26 12:40:11;;;;;;;0.00;0.00;;;;;;;;;;5073791;28;20211;-71
2023/05/26 12:42:38;;;;;;;0.00;0.00;;;;;;;;;;5098839;28;20530;-70
2023/05/26 12:45:05;;;;;;;0.00;0.00;;;;;;;;;;5083666;28;20215;-71
2023/05/26 12:47:32;;;;;;;0.45;0.45;;;;;;;;;;5072140;28;20211;-70
2023/05/26 12:49:59;;;;;;;0.00;0.00;;;;;;;;;;5084065;28;20210;-70
2023/05/26 12:52:26;;;;;;;0.08;0.08;;;;;;;;;;5088633;28;20238;-71
2023/05/26 12:54:53;;;;;;;0.05;0.05;;;;;;;;;;5083989;28;20213;-71
2023/05/26 12:57:19;;;;;;;0.10;0.10;;;;;;;;;;5089078;28;20247;-71
2023/05/26 12:59:46;;;;;;;0.00;0.00;;;;;;;;;;5083800;28;20295;-71
2023/05/26 13:02:12;;;;;;;0.10;0.10;;;;;;;;;;5088876;28;20456;-71
2023/05/26 13:04:38;;;;;;;0.00;0.00;;;;;;;;;;5083874;28;20277;-71
2023/05/26 13:07:08;;;;;;;0.00;0.00;;;;;;;;;;5088718;28;20234;-71
2023/05/26 13:09:34;;;;;;;0.00;0.00;;;;;;;;;;5083863;28;20210;-72
2023/05/26 13:12:01;;;;;;;0.00;0.00;;;;;;;;;;5088096;28;20250;-71
2023/05/26 13:14:27;;;;;;;0.00;0.00;;;;;;;;;;5084556;28;20245;-71
2023/05/26 13:16:54;;;;;;;0.00;0.00;;;;;;;;;;5087201;28;20577;-71
2023/05/26 13:19:21;;;;;;;0.00;0.00;;;;;;;;;;5085394;28;20420;-71
2023/05/26 13:21:47;;;;;;;0.00;0.00;;;;;;;;;;5086107;28;20457;-72
2023/05/26 13:24:15;;;;;;;0.28;0.28;;;;;;;;;;5086327;28;20515;-71
2023/05/26 13:26:41;;;;;;;0.00;0.00;;;;;;;;;;5085336;28;20305;-71
2023/05/26 13:29:10;;;;;;;0.05;0.05;;;;;;;;;;5086846;28;20222;-71
2023/05/26 13:31:36;;;;;;;0.00;0.00;;;;;;;;;;5084751;28;20238;-71
2023/05/26 13:34:03;;;;;;;0.00;0.00;;;;;;;;;;5087395;28;20275;-71
2023/05/26 13:36:29;;;;;;;0.00;0.00;;;;;;;;;;5083761;28;20261;-71
2023/05/26 13:38:55;;;;;;;0.00;0.00;;;;;;;;;;5087956;28;20246;-72
2023/05/26 13:41:23;;;;;;;0.08;0.08;;;;;;;;;;5082482;28;20281;-71
2023/05/26 13:43:49;;;;;;;0.10;0.10;;;;;;;;;;5089093;28;20278;-71
2023/05/26 13:46:16;;;;;;;0.00;0.00;;;;;;;;;;5081730;28;20245;-71
2023/05/26 13:48:42;;;;;;;0.00;0.00;;;;;;;;;;5089923;28;20274;-71
2023/05/26 13:51:09;;;;;;;0.00;0.00;;;;;;;;;;5083142;28;20254;-71
2023/05/26 13:53:36;;;;;;;2.38;2.28;;;;;;;;;;5094618;28;20278;-71
2023/05/26 13:56:02;;;;;;;0.08;0.08;;;;;;;;;;5083902;28;20238;-72
2023/05/26 13:58:30;;;;;;;0.00;0.00;;;;;;;;;;5095317;28;20251;-71
2023/05/26 14:00:56;;;;;;;0.08;0.08;;;;;;;;;;5082800;28;20309;-73
2023/05/26 14:03:22;;;;;;;0.03;0.03;;;;;;;;;;5096056;28;20210;-72
2023/05/26 14:05:49;;;;;;;0.00;0.00;;;;;;;;;;5081859;28;20238;-72
2023/05/26 14:08:15;;;;;;;0.00;0.00;;;;;;;;;;5096871;28;20203;-72
2023/05/26 14:10:41;;;;;;;0.00;0.00;;;;;;;;;;5080698;28;20255;-73
2023/05/26 14:13:08;;;;;;;0.00;0.00;;;;;;;;;;5097759;28;20266;-72
2023/05/26 14:15:35;;;;;;;0.77;0.77;;;;;;;;;;5079970;28;20289;-72
2023/05/26 14:18:02;;;;;;;0.10;0.10;;;;;;;;;;5098806;28;20262;-71
2023/05/26 14:20:28;;;;;;;0.10;0.10;;;;;;;;;;5079170;28;20539;-71
2023/05/26 14:22:55;;;;;;;0.00;0.00;;;;;;;;;;5099482;28;20225;-71
2023/05/26 14:25:21;;;;;;;0.10;0.10;;;;;;;;;;5077770;28;20245;-71
2023/05/26 14:27:48;;;;;;;0.25;0.25;;;;;;;;;;5100383;28;20453;-72
2023/05/26 14:30:14;;;;;;;0.35;0.35;;;;;;;;;;5076570;28;20242;-71
2023/05/26 14:32:42;;;;;;;0.00;0.00;;;;;;;;;;5101362;28;20407;-71
2023/05/26 14:35:09;;;;;;;0.00;0.00;;;;;;;;;;5077010;28;20381;-72
2023/05/26 14:37:35;;;;;;;0.00;0.00;;;;;;;;;;5101590;28;20226;-72
2023/05/26 14:40:02;;;;;;;0.00;0.00;;;;;;;;;;5086610;28;20206;-70
2023/05/26 14:42:28;;;;;;;0.00;0.00;;;;;;;;;;5091420;28;20246;-72
2023/05/26 14:44:55;;;;;;;0.10;0.10;;;;;;;;;;5086073;28;20248;-72